Canadian Empress — VX6095 — position and weather

sailwx.info

Track history (hours):
 
Tides and Currents Weather Stations Pressure Air Temp Water Temp Dewpoint Dewpoint Depression Visibility Wind Speed Wind Dir Waves Ship Positions

Canadian Empress

Last reported at 2014-Oct-18 17:33 UTC. Time now 2014-Nov-01 05:26 UTC.
Position N 44°14' W 076°28'.
Warning: this ship's position is 13 days out of date.

Length 30 m.

Type: Passenger vessel. MMSI: 314954012.

Date/timePositionNaut miles runAvg speedWind from/ knotsBaromVisibWave heightAir tempDewpointWater temp
2014-Oct-18 17:33N 44°14' W 076°28'7 6.8
2014-Oct-18 16:31N 44°17' W 076°19'  
2014-Oct-15 23:33N 44°15' W 076°23'4 4.0
2014-Oct-15 22:33N 44°14' W 076°29'0 0.0
2014-Oct-15 21:33N 44°14' W 076°29'0 0.0
2014-Oct-15 20:33N 44°14' W 076°29'0 0.0
2014-Oct-15 19:33N 44°14' W 076°29'0 0.0
2014-Oct-15 18:33N 44°14' W 076°29'1 0.8
2014-Oct-15 17:33N 44°13' W 076°28'7 6.8
2014-Oct-15 16:33N 44°17' W 076°19'  
2014-Oct-12 20:33N 45°12' W 074°17'8 7.8
2014-Oct-12 19:31N 45°13' W 074°06'6 6.3
2014-Oct-12 18:33N 45°15' W 073°58'4 4.1
2014-Oct-12 17:33N 45°19' W 073°55'7 6.7
2014-Oct-12 16:33N 45°23' W 073°48'5 5.1
2014-Oct-12 15:33N 45°26' W 073°42'0 0.0
2014-Oct-12 04:25N 45°26' W 073°42'6 6.7
2014-Oct-12 03:33N 45°23' W 073°49'6 6.3
2014-Oct-12 02:33N 45°19' W 073°55'0 0.5
2014-Oct-12 01:33N 45°18' W 073°56'2 2.5
2014-Oct-12 00:33N 45°16' W 073°57'6 6.4
2014-Oct-11 23:33N 45°13' W 074°05'10 9.5
2014-Oct-11 22:33N 45°11' W 074°19'105 2.2
2014-Oct-09 23:31N 44°15' W 076°23'4 4.0
2014-Oct-09 22:33N 44°14' W 076°29'0 0.0
2014-Oct-09 21:33N 44°14' W 076°29'0 0.0
2014-Oct-09 20:33N 44°14' W 076°29'0 0.0
2014-Oct-09 19:33N 44°14' W 076°29'0 0.0
2014-Oct-09 18:33N 44°14' W 076°29'0 0.0
2014-Oct-09 17:33N 44°14' W 076°29'8 6.8
2014-Oct-09 16:27N 44°17' W 076°19'  
Track history (hours):
 
Tides and Currents Weather Stations Pressure Air Temp Water Temp Dewpoint Dewpoint Depression Visibility Wind Speed Wind Dir Waves Ship Positions

Canadian Empress

Last reported at 2014-Oct-18 17:33 UTC. Time now 2014-Nov-01 05:26 UTC.
Position N 44°14' W 076°28'.
Warning: this ship's position is 13 days out of date.

Length 30 m.

Type: Passenger vessel. MMSI: 314954012.

Date/timePositionNaut miles runAvg speedWind from/ knotsBaromVisibWave heightAir tempDewpointWater temp
2014-Oct-18 17:33N 44°14' W 076°28'7 6.8
2014-Oct-18 16:31N 44°17' W 076°19'  
2014-Oct-15 23:33N 44°15' W 076°23'4 4.0
2014-Oct-15 22:33N 44°14' W 076°29'0 0.0
2014-Oct-15 21:33N 44°14' W 076°29'0 0.0
2014-Oct-15 20:33N 44°14' W 076°29'0 0.0
2014-Oct-15 19:33N 44°14' W 076°29'0 0.0
2014-Oct-15 18:33N 44°14' W 076°29'1 0.8
2014-Oct-15 17:33N 44°13' W 076°28'7 6.8
2014-Oct-15 16:33N 44°17' W 076°19'  
2014-Oct-12 20:33N 45°12' W 074°17'8 7.8
2014-Oct-12 19:31N 45°13' W 074°06'6 6.3
2014-Oct-12 18:33N 45°15' W 073°58'4 4.1
2014-Oct-12 17:33N 45°19' W 073°55'7 6.7
2014-Oct-12 16:33N 45°23' W 073°48'5 5.1
2014-Oct-12 15:33N 45°26' W 073°42'0 0.0
2014-Oct-12 04:25N 45°26' W 073°42'6 6.7
2014-Oct-12 03:33N 45°23' W 073°49'6 6.3
2014-Oct-12 02:33N 45°19' W 073°55'0 0.5
2014-Oct-12 01:33N 45°18' W 073°56'2 2.5
2014-Oct-12 00:33N 45°16' W 073°57'6 6.4
2014-Oct-11 23:33N 45°13' W 074°05'10 9.5
2014-Oct-11 22:33N 45°11' W 074°19'105 2.2
2014-Oct-09 23:31N 44°15' W 076°23'4 4.0
2014-Oct-09 22:33N 44°14' W 076°29'0 0.0
2014-Oct-09 21:33N 44°14' W 076°29'0 0.0
2014-Oct-09 20:33N 44°14' W 076°29'0 0.0
2014-Oct-09 19:33N 44°14' W 076°29'0 0.0
2014-Oct-09 18:33N 44°14' W 076°29'0 0.0
2014-Oct-09 17:33N 44°14' W 076°29'8 6.8
2014-Oct-09 16:27N 44°17' W 076°19'  

Dump ship's entire track history